Time;durP1;ratioP1;P1;durP2;ratioP2;P2;SDS_P1;SDS_P2;PMS_P1;PMS_P2;Temp;Humidity;BMP_temperature;BMP_pressure;BME280_temperature;BME280_humidity;BME280_pressure;Samples;Min_cycle;Max_cycle;Signal;HPM_P1;HPM_P2
2023/09/09 00:00:43;311974.00;1.04;538.50;18163.00;0.06;32.09;;;;;22.30;1.00;;;;;;2280004;61;926;-87
2023/09/09 00:03:11;320839.00;1.07;553.74;0.00;0.00;0.62;;;;;22.20;1.00;;;;;;2280334;61;906;-90
2023/09/09 00:05:41;214438.00;0.71;370.77;20044.00;0.07;35.35;;;;;22.20;1.00;;;;;;2280162;61;1923;-89
2023/09/09 00:08:11;326232.00;1.09;563.01;0.00;0.00;0.62;;;;;22.20;1.00;;;;;;2280085;61;1687;-88
2023/09/09 00:10:39;248474.00;0.83;429.33;38629.00;0.13;67.52;;;;;22.30;1.00;;;;;;2280134;61;1147;-86
2023/09/09 00:13:09;165562.00;0.55;286.62;0.00;0.00;0.62;;;;;22.40;1.00;;;;;;2280241;61;1158;-87
2023/09/09 00:15:37;192693.00;0.64;333.34;37932.00;0.13;66.31;;;;;22.40;1.00;;;;;;2280310;61;1098;-88
2023/09/09 00:18:05;246547.00;0.82;426.01;0.00;0.00;0.62;;;;;22.40;1.00;;;;;;2280016;61;1752;-87
2023/09/09 00:20:34;176589.00;0.59;305.62;0.00;0.00;0.62;;;;;22.20;1.00;;;;;;2280006;61;978;-88
2023/09/09 00:23:07;211644.00;0.71;365.96;0.00;0.00;0.62;;;;;22.00;1.00;;;;;;2280127;61;1182;-89
2023/09/09 00:25:34;283166.00;0.94;488.98;0.00;0.00;0.62;;;;;22.00;1.00;;;;;;2280128;61;1996;-88
2023/09/09 00:28:01;353402.00;1.18;609.71;0.00;0.00;0.62;;;;;22.10;1.00;;;;;;2280118;61;1654;-89
2023/09/09 00:30:28;498051.00;1.66;858.47;0.00;0.00;0.62;;;;;22.30;1.00;;;;;;2280153;61;1387;-88
2023/09/09 00:32:59;311311.00;1.04;537.36;0.00;0.00;0.62;;;;;22.30;1.00;;;;;;2280205;61;1480;-89
2023/09/09 00:35:26;383280.00;1.28;661.06;54462.00;0.18;94.90;;;;;22.30;1.00;;;;;;2280155;61;1061;-86
2023/09/09 00:37:54;374569.00;1.25;646.09;83434.00;0.28;144.97;;;;;22.10;1.00;;;;;;2279911;61;1453;-87
2023/09/09 00:40:21;614645.00;2.05;1059.51;65934.00;0.22;114.73;;;;;22.00;1.20;;;;;;2280008;61;1705;-88
2023/09/09 00:42:49;503441.00;1.68;867.75;35217.00;0.12;61.61;;;;;22.10;1.00;;;;;;2288529;39;3731;-87
2023/09/09 00:45:16;418376.00;1.39;721.40;45974.00;0.15;80.22;;;;;22.10;1.00;;;;;;2280021;60;2002;-88
2023/09/09 00:47:44;301018.00;1.00;519.67;77135.00;0.26;134.09;;;;;21.90;1.00;;;;;;2280001;60;1653;-87
2023/09/09 00:50:13;273427.00;0.91;472.24;0.00;0.00;0.62;;;;;21.90;1.10;;;;;;2276351;61;1758;-88
2023/09/09 00:52:42;89072.00;0.30;154.71;0.00;0.00;0.62;;;;;22.00;1.50;;;;;;2276073;61;1560;-87
2023/09/09 00:55:12;359232.00;1.20;619.73;86428.00;0.29;150.14;;;;;22.00;1.80;;;;;;2276083;61;1751;-88
2023/09/09 00:57:39;324873.00;1.08;560.67;28696.00;0.10;50.33;;;;;22.20;1.60;;;;;;2275905;61;1740;-88
2023/09/09 01:00:09;261616.00;0.87;451.93;0.00;0.00;0.62;;;;;22.30;1.00;;;;;;2275980;61;1273;-87
2023/09/09 01:02:36;105465.00;0.35;183.00;0.00;0.00;0.62;;;;;22.00;1.80;;;;;;2275841;61;1642;-88
2023/09/09 01:05:04;374085.00;1.25;645.26;21700.00;0.07;38.21;;;;;22.10;1.30;;;;;;2275925;61;1918;-87
2023/09/09 01:07:45;310082.00;1.03;535.25;0.00;0.00;0.62;;;;;22.10;1.50;;;;;;2275938;61;2266;-88
2023/09/09 01:10:12;320549.00;1.07;553.24;0.00;0.00;0.62;;;;;21.90;1.80;;;;;;2275854;61;1545;-88
2023/09/09 01:12:41;497611.00;1.66;857.71;84357.00;0.28;146.56;;;;;21.80;3.20;;;;;;2275702;61;953;-88
2023/09/09 01:15:09;65164.00;0.22;113.40;0.00;0.00;0.62;;;;;21.70;3.10;;;;;;2275703;61;1532;-87
2023/09/09 01:17:37;342479.00;1.14;590.93;0.00;0.00;0.62;;;;;21.70;3.40;;;;;;2275609;61;2214;-88
2023/09/09 01:20:07;249791.00;0.83;431.59;0.00;0.00;0.62;;;;;21.70;3.10;;;;;;2275507;61;1561;-87
2023/09/09 01:22:36;141019.00;0.47;244.33;0.00;0.00;0.62;;;;;21.60;3.70;;;;;;2275705;61;1523;-87
2023/09/09 01:25:05;309135.00;1.03;533.62;0.00;0.00;0.62;;;;;21.70;3.50;;;;;;2275462;61;1992;-88
2023/09/09 01:27:32;278026.00;0.93;480.14;0.00;0.00;0.62;;;;;21.70;3.40;;;;;;2275685;61;1029;-89
2023/09/09 01:30:00;309057.00;1.03;533.49;0.00;0.00;0.62;;;;;21.80;3.20;;;;;;2275578;61;1465;-88
2023/09/09 01:32:28;221006.00;0.74;382.07;0.00;0.00;0.62;;;;;21.80;2.60;;;;;;2275480;61;1663;-88
2023/09/09 01:34:55;374107.00;1.25;645.30;0.00;0.00;0.62;;;;;21.70;2.70;;;;;;2275515;61;1467;-87
2023/09/09 01:37:22;189973.00;0.63;328.66;0.00;0.00;0.62;;;;;21.70;3.20;;;;;;2275775;61;1766;-87
2023/09/09 01:39:54;268264.00;0.89;463.36;0.00;0.00;0.62;;;;;21.70;3.30;;;;;;2275709;61;1238;-89
2023/09/09 01:42:21;353986.00;1.18;610.71;0.00;0.00;0.62;;;;;21.60;3.50;;;;;;2275560;61;973;-89
2023/09/09 01:44:48;285129.00;0.95;492.36;52322.00;0.17;91.20;;;;;21.70;3.20;;;;;;2293187;55;3766;-88
2023/09/09 01:47:16;802205.00;2.67;1384.97;43945.00;0.15;76.71;;;;;21.80;2.60;;;;;;2283298;60;1457;-90
2023/09/09 01:49:43;163243.00;0.54;282.63;0.00;0.00;0.62;;;;;21.80;3.60;;;;;;2280664;60;1663;-87
2023/09/09 01:52:10;171504.00;0.57;296.86;0.00;0.00;0.62;;;;;21.70;3.50;;;;;;2279692;61;1599;-88
2023/09/09 01:54:39;288330.00;0.96;497.86;0.00;0.00;0.62;;;;;21.80;2.50;;;;;;2279701;61;886;-89
2023/09/09 01:57:07;269351.00;0.90;465.23;0.00;0.00;0.62;;;;;21.90;1.80;;;;;;2279583;61;1544;-90
2023/09/09 01:59:35;172331.00;0.57;298.28;0.00;0.00;0.62;;;;;21.90;1.70;;;;;;2279594;61;1602;-88
2023/09/09 02:02:04;189417.00;0.63;327.70;0.00;0.00;0.62;;;;;21.70;2.10;;;;;;2279761;61;908;-87
2023/09/09 02:04:31;264497.00;0.88;456.88;0.00;0.00;0.62;;;;;21.70;2.30;;;;;;2279732;61;1474;-88
2023/09/09 02:06:58;442139.00;1.47;762.26;74.00;0.00;0.75;;;;;21.80;2.40;;;;;;2279525;61;1927;-87
2023/09/09 02:09:25;241003.00;0.80;416.48;0.00;0.00;0.62;;;;;21.70;3.10;;;;;;2279542;61;2483;-89
2023/09/09 02:11:52;382861.00;1.28;660.34;108466.00;0.36;188.18;;;;;21.90;2.70;;;;;;2279617;61;991;-85
2023/09/09 02:16:50;1243183.00;4.14;2168.49;0.00;0.00;0.62;;;;;21.80;1.90;;;;;;2277401;61;1370;-87
2023/09/09 02:19:17;256555.00;0.86;443.22;55154.00;0.18;96.10;;;;;21.70;2.60;;;;;;2275623;61;1269;-88
2023/09/09 02:21:44;320427.00;1.07;553.03;0.00;0.00;0.62;;;;;21.70;2.50;;;;;;2275390;61;1615;-89
2023/09/09 02:24:11;252134.00;0.84;435.62;22509.00;0.08;39.61;;;;;21.70;2.70;;;;;;2275469;61;1690;-88
2023/09/09 02:26:38;191068.00;0.64;330.55;0.00;0.00;0.62;;;;;21.50;2.90;;;;;;2275541;61;1997;-88
2023/09/09 02:29:06;378759.00;1.26;653.29;33941.00;0.11;59.40;;;;;21.40;4.00;;;;;;2275538;61;1733;-89
2023/09/09 02:31:33;245110.00;0.82;423.54;25241.00;0.08;44.34;;;;;21.30;4.30;;;;;;2275578;61;1129;-88
2023/09/09 02:34:01;166997.00;0.56;289.09;0.00;0.00;0.62;;;;;21.40;4.50;;;;;;2275527;61;925;-89
2023/09/09 02:39:01;1351192.00;4.50;2366.10;0.00;0.00;0.62;;;;;21.50;4.60;;;;;;2281506;61;1424;-88
2023/09/09 02:41:28;418538.00;1.40;721.68;0.00;0.00;0.62;;;;;21.50;4.60;;;;;;2279055;61;1635;-88
2023/09/09 02:43:55;225217.00;0.75;389.32;5525.00;0.02;10.20;;;;;21.50;4.60;;;;;;2279522;61;1087;-86
2023/09/09 02:46:23;246809.00;0.82;426.46;0.00;0.00;0.62;;;;;21.60;4.10;;;;;;2280103;61;1925;-88
2023/09/09 02:48:50;787966.00;2.63;1360.14;193926.00;0.65;335.47;;;;;21.70;3.90;;;;;;2280119;61;1395;-88
2023/09/09 02:51:18;276981.00;0.92;478.35;0.00;0.00;0.62;;;;;21.50;4.40;;;;;;2280158;61;1606;-88
2023/09/09 02:53:45;248550.00;0.83;429.46;0.00;0.00;0.62;;;;;21.50;4.10;;;;;;2280172;61;1552;-88
2023/09/09 02:56:12;274832.00;0.92;474.65;0.00;0.00;0.62;;;;;21.40;4.50;;;;;;2280301;61;996;-88
2023/09/09 02:58:40;179699.00;0.60;310.97;0.00;0.00;0.62;;;;;21.40;4.70;;;;;;2280257;61;1502;-86
2023/09/09 03:01:08;240565.00;0.80;415.72;63373.00;0.21;110.31;;;;;21.30;4.40;;;;;;2280281;61;1706;-89
2023/09/09 03:03:37;276375.00;0.92;477.30;0.00;0.00;0.62;;;;;21.20;4.80;;;;;;2280367;61;1725;-88
2023/09/09 03:06:05;606641.00;2.02;1045.69;58458.00;0.19;101.81;;;;;21.30;4.60;;;;;;2349892;40;3603;-88
2023/09/09 03:08:34;177741.00;0.59;307.60;0.00;0.00;0.62;;;;;21.40;4.70;;;;;;2281691;55;3740;-90
2023/09/09 03:11:01;315506.00;1.05;544.57;81761.00;0.27;142.08;;;;;21.40;4.10;;;;;;2280355;61;1521;-88
2023/09/09 03:15:58;1383310.00;4.61;2425.41;2422.00;0.01;4.82;;;;;21.00;6.00;;;;;;2286395;39;3467;-89
2023/09/09 03:20:54;1238375.00;4.13;2159.76;0.00;0.00;0.62;;;;;20.80;6.70;;;;;;2278465;61;1428;-88
2023/09/09 03:23:21;298115.00;0.99;514.68;0.00;0.00;0.62;;;;;21.00;5.80;;;;;;2276537;61;1711;-88
2023/09/09 03:25:50;207035.00;0.69;358.03;0.00;0.00;0.62;;;;;21.00;5.20;;;;;;2276311;61;1992;-90
2023/09/09 03:28:17;203390.00;0.68;351.76;0.00;0.00;0.62;;;;;21.00;5.20;;;;;;2276449;60;1336;-88
2023/09/09 03:35:49;1362397.00;4.54;2386.76;14029.00;0.05;24.93;;;;;21.00;4.90;;;;;;2287744;39;3633;-87
2023/09/09 03:38:16;117557608.00;391.86;65808560.00;133885.00;0.45;232.03;;;;;21.00;5.70;;;;;;2284171;60;1664;-88
2023/09/09 03:40:43;117774384.00;392.58;66173600.00;0.00;0.00;0.62;;;;;20.70;6.20;;;;;;2280419;61;1022;-87
2023/09/09 03:43:13;365112.00;1.22;629.84;0.00;0.00;0.62;;;;;20.60;6.60;;;;;;2280323;61;1710;-87
2023/09/09 03:45:40;224297.00;0.75;387.74;0.00;0.00;0.62;;;;;20.60;6.60;;;;;;2280302;61;1998;-88
2023/09/09 03:50:37;1294723.00;4.32;2262.45;72382.00;0.24;125.88;;;;;20.70;6.70;;;;;;2281995;60;1438;-89
2023/09/09 03:53:04;459438.00;1.53;792.02;112876.00;0.38;195.79;;;;;20.60;6.60;;;;;;2280506;60;991;-89
2023/09/09 04:00:31;1533851.00;5.11;2706.98;70925.00;0.24;123.36;;;;;21.00;5.40;;;;;;2274457;61;1415;-89
2023/09/09 04:02:59;329787.00;1.10;569.12;68703.00;0.23;119.52;;;;;21.00;5.00;;;;;;2272283;61;981;-88
2023/09/09 04:08:03;1349940.00;4.50;2363.80;70590.00;0.24;122.78;;;;;21.00;5.00;;;;;;2282355;61;1414;-90
2023/09/09 04:10:30;402046.00;1.34;693.32;68828.00;0.23;119.74;;;;;21.00;5.00;;;;;;2276252;61;1665;-89
2023/09/09 04:12:57;619264.00;2.06;1067.49;95270.00;0.32;165.41;;;;;21.00;5.30;;;;;;2279862;55;3758;-88
2023/09/09 04:20:23;1164159.00;3.88;2025.55;79606.00;0.27;138.36;;;;;20.90;4.90;;;;;;2278128;61;1407;-87
2023/09/09 04:22:51;492001.00;1.64;848.05;72373.00;0.24;125.86;;;;;20.80;5.80;;;;;;2276367;61;1001;-88
2023/09/09 04:30:19;1778267.00;5.93;3178.53;82360.00;0.27;143.11;;;;;20.90;4.50;;;;;;2290434;56;3717;-86
2023/09/09 04:32:46;760584.00;2.54;1312.47;75310.00;0.25;130.94;;;;;20.90;5.20;;;;;;2284426;60;2371;-88
2023/09/09 04:35:13;1076357.00;3.59;1868.19;84513.00;0.28;146.83;;;;;20.80;3.20;;;;;;2284386;60;926;-89
2023/09/09 04:40:10;2033328.00;6.78;3692.98;139867.00;0.47;242.34;;;;;20.80;4.50;;;;;;1563717;56;3482;-88
2023/09/09 04:42:38;754447.00;2.51;1301.79;72222.00;0.24;125.60;;;;;20.90;3.90;;;;;;2282694;39;3619;-88
2023/09/09 04:47:33;1586257.00;5.29;2806.50;67614.00;0.23;117.64;;;;;20.90;4.40;;;;;;2281721;61;1970;-87
2023/09/09 04:50:00;1117583.00;3.73;1941.90;101080.00;0.34;175.44;;;;;20.90;3.90;;;;;;2280157;61;1775;-87
2023/09/09 04:52:27;646437.00;2.15;1114.47;106289.00;0.35;184.43;;;;;20.80;4.90;;;;;;2280201;61;1186;-89
2023/09/09 04:54:54;897297.00;2.99;1551.37;88289.00;0.29;153.35;;;;;21.10;4.10;;;;;;2280207;61;1097;-87
2023/09/09 04:57:22;738918.00;2.46;1274.79;89051.00;0.30;154.67;;;;;21.00;2.50;;;;;;2280255;61;1453;-88
2023/09/09 04:59:52;759241.00;2.53;1310.13;70003.00;0.23;121.77;;;;;21.10;3.60;;;;;;2280113;61;1277;-89
2023/09/09 05:02:20;1453023.00;4.84;2555.03;102348.00;0.34;177.62;;;;;21.00;4.70;;;;;;2287834;40;3615;-89
2023/09/09 05:04:47;1012092.00;3.37;1753.90;134777.00;0.45;233.57;;;;;21.10;5.00;;;;;;2280192;60;1659;-86
2023/09/09 05:07:14;1071723.00;3.57;1859.93;109092.00;0.36;189.26;;;;;21.10;4.80;;;;;;2279918;60;1923;-89
2023/09/09 05:09:41;1420631.00;4.74;2494.64;105096.00;0.35;182.37;;;;;21.00;5.30;;;;;;2287127;56;3732;-89
2023/09/09 05:12:08;926938.00;3.09;1603.48;74113.00;0.25;128.87;;;;;21.20;4.00;;;;;;2284323;55;3723;-88
2023/09/09 05:19:36;1550035.00;5.17;2737.63;92449.00;0.31;160.54;;;;;20.90;5.20;;;;;;2277633;61;1399;-87
2023/09/09 05:22:03;851721.00;2.84;1471.48;135639.00;0.45;235.05;;;;;20.80;5.30;;;;;;2276139;61;992;-87
2023/09/09 05:24:30;937561.00;3.13;1622.19;79090.00;0.26;137.47;;;;;21.00;5.70;;;;;;2289495;39;3756;-89
2023/09/09 05:29:27;2006982.00;6.69;3638.67;87994.00;0.29;152.84;;;;;21.10;5.90;;;;;;2281724;61;1389;-89
2023/09/09 05:37:00;1383192.00;4.61;2425.19;0.00;0.00;0.62;;;;;22.90;2.70;;;;;;2282701;61;1342;-90
2023/09/09 05:39:27;1147053.00;3.82;1994.78;104861.00;0.35;181.96;;;;;23.50;1.00;;;;;;2299124;39;3675;-89
2023/09/09 05:41:54;1031843.00;3.44;1788.95;47484.00;0.16;82.83;;;;;24.00;1.00;;;;;;2280283;60;1548;-90
2023/09/09 05:44:21;1112532.00;3.71;1932.85;147098.00;0.49;254.81;;;;;24.60;1.00;;;;;;2280035;60;1449;-87
2023/09/09 05:46:48;1141841.00;3.81;1985.41;64614.00;0.22;112.45;;;;;25.20;1.00;;;;;;2314936;40;3670;-86
2023/09/09 05:49:15;695801.00;2.32;1199.96;0.00;0.00;0.62;;;;;25.50;1.00;;;;;;2278029;60;1417;-88
2023/09/09 05:51:42;548470.00;1.83;945.32;0.00;0.00;0.62;;;;;25.80;1.00;;;;;;2276089;61;1419;-89
2023/09/09 05:54:11;468679.00;1.56;807.92;0.00;0.00;0.62;;;;;26.40;1.00;;;;;;2283697;55;3784;-86
2023/09/09 05:56:38;612186.00;2.04;1055.27;0.00;0.00;0.62;;;;;26.70;1.00;;;;;;2284229;60;1060;-90
2023/09/09 05:59:08;819917.00;2.73;1415.88;29711.00;0.10;52.08;;;;;27.10;1.00;;;;;;2327653;39;3600;-87
2023/09/09 06:01:38;692242.00;2.31;1193.79;65538.00;0.22;114.05;;;;;27.60;1.00;;;;;;2275819;61;1588;-88
2023/09/09 06:06:38;1740380.00;5.80;3104.15;67663.00;0.23;117.72;;;;;28.20;1.00;;;;;;2281948;61;1976;-89
2023/09/09 06:09:05;712783.00;2.38;1229.41;46457.00;0.15;81.06;;;;;28.50;1.00;;;;;;2279801;61;1267;-88
2023/09/09 06:14:04;2244545.00;7.48;4139.15;75498.00;0.25;131.26;;;;;28.90;1.00;;;;;;2281683;55;3776;-88
2023/09/09 06:16:32;953782.00;3.18;1650.78;60023.00;0.20;104.52;;;;;29.20;1.00;;;;;;2279875;60;1044;-88
2023/09/09 06:21:27;1574994.00;5.25;2785.04;0.00;0.00;0.62;;;;;30.00;1.00;;;;;;1969405;56;3477;-88
2023/09/09 06:23:54;701516.00;2.34;1209.87;67019.00;0.22;116.61;;;;;30.50;1.00;;;;;;2276841;61;994;-89
2023/09/09 06:26:21;795320.00;2.65;1372.96;60507.00;0.20;105.35;;;;;30.70;1.00;;;;;;2297392;39;3575;-88
2023/09/09 06:28:49;907502.00;3.03;1569.30;114573.00;0.38;198.72;;;;;30.80;1.00;;;;;;2314163;55;3746;-88
2023/09/09 06:31:18;555676.00;1.85;957.74;94344.00;0.31;163.81;;;;;30.90;1.00;;;;;;2280577;61;981;-87
2023/09/09 06:33:45;626639.00;2.09;1080.24;4861.00;0.02;9.04;;;;;31.00;1.00;;;;;;2287319;55;3697;-88
2023/09/09 06:36:12;1252538.00;4.18;2185.50;22569.00;0.08;39.72;;;;;31.20;1.00;;;;;;2280326;60;1728;-88
2023/09/09 06:38:38;969862.00;3.23;1679.17;142096.00;0.47;246.18;;;;;31.30;1.00;;;;;;2283822;55;3771;-88
2023/09/09 06:41:06;896941.00;2.99;1550.75;59797.00;0.20;104.13;;;;;31.60;1.00;;;;;;2280591;61;1118;-89
2023/09/09 06:43:33;1098786.00;3.66;1908.25;137572.00;0.46;238.39;;;;;31.50;1.00;;;;;;2280753;61;1268;-87
2023/09/09 06:46:01;658774.00;2.20;1135.82;58695.00;0.20;102.22;;;;;31.70;1.00;;;;;;2280723;61;1915;-88
2023/09/09 06:51:04;1596498.00;5.32;2826.05;31543.00;0.11;55.25;;;;;32.70;1.00;;;;;;2278403;61;1429;-89
2023/09/09 06:53:31;710962.00;2.37;1226.25;42061.00;0.14;73.45;;;;;33.60;1.00;;;;;;2276478;61;1065;-88
2023/09/09 06:55:58;310097.00;1.03;535.28;0.00;0.00;0.62;;;;;33.90;1.00;;;;;;2276486;61;1292;-88
2023/09/09 06:58:27;547769.00;1.83;944.11;90085.00;0.30;156.45;;;;;33.70;1.00;;;;;;2275855;61;1738;-87
2023/09/09 07:00:56;725232.00;2.42;1251.02;99564.00;0.33;172.82;;;;;33.40;1.00;;;;;;2272507;61;1076;-86
2023/09/09 07:03:23;668456.00;2.23;1152.58;18330.00;0.06;32.38;;;;;33.90;1.00;;;;;;2272573;61;1752;-87
2023/09/09 07:05:52;720100.00;2.40;1242.11;100063.00;0.33;173.68;;;;;34.20;1.00;;;;;;2272622;61;1126;-87
2023/09/09 07:11:08;1079688.00;3.60;1874.14;0.00;0.00;0.62;;;;;34.60;1.00;;;;;;2394818;39;3680;-87
2023/09/09 07:18:44;1199044.00;4.00;2088.49;44148.00;0.15;77.06;;;;;34.40;1.00;;;;;;2277944;60;1478;-87
2023/09/09 07:21:11;375871.00;1.25;648.33;15578.00;0.05;27.61;;;;;34.50;1.00;;;;;;2276673;60;1147;-87
2023/09/09 07:23:51;255352.00;0.85;441.16;114.00;0.00;0.82;;;;;34.30;1.00;;;;;;2294345;39;3620;-87
2023/09/09 07:28:54;1088186.00;3.63;1889.31;0.00;0.00;0.62;;;;;33.70;1.00;;;;;;2282086;61;1336;-88
2023/09/09 07:31:21;214109.00;0.71;370.21;0.00;0.00;0.62;;;;;33.60;1.00;;;;;;2280477;61;978;-85
2023/09/09 07:33:48;145601.00;0.49;252.23;0.00;0.00;0.62;;;;;33.70;1.00;;;;;;2280632;61;1059;-85
2023/09/09 07:36:15;50629.00;0.17;88.27;0.00;0.00;0.62;;;;;33.40;1.00;;;;;;2280697;61;1013;-87
2023/09/09 07:38:42;166447.00;0.55;288.15;0.00;0.00;0.62;;;;;33.70;1.00;;;;;;2280523;61;1409;-87
2023/09/09 07:41:09;239716.00;0.80;414.26;0.00;0.00;0.62;;;;;34.00;1.00;;;;;;2280644;61;1057;-88
2023/09/09 07:56:15;1060589.00;3.54;1840.08;0.00;0.00;0.62;;;;;33.70;1.00;;;;;;2288471;56;3634;-89
2023/09/09 08:16:31;1449268.00;4.83;2548.02;95023.00;0.32;164.98;;;;;34.00;1.00;;;;;;1960180;40;3433;-89
2023/09/09 08:41:44;1160129.00;3.87;2018.30;0.00;0.00;0.62;;;;;32.50;1.00;;;;;;2298660;40;3444;-88
2023/09/09 08:51:48;860498.00;2.87;1486.84;0.00;0.00;0.62;;;;;31.20;1.00;;;;;;1224466;55;3549;-88
2023/09/09 08:56:45;624768.00;2.08;1077.01;0.00;0.00;0.62;;;;;31.40;1.00;;;;;;2278794;61;1299;-90
2023/09/09 08:59:14;540174.00;1.80;931.02;92912.00;0.31;161.34;;;;;31.00;1.00;;;;;;2307099;40;3602;-90
2023/09/09 09:09:07;546334.00;1.82;941.64;0.00;0.00;0.62;;;;;31.10;1.00;;;;;;1915935;40;3598;-90
2023/09/09 09:11:34;276388.00;0.92;477.33;0.00;0.00;0.62;;;;;31.30;1.00;;;;;;2280338;61;923;-88
2023/09/09 09:16:32;340987.00;1.14;588.37;0.00;0.00;0.62;;;;;31.90;1.00;;;;;;2277885;61;1407;-88
2023/09/09 09:21:33;411516.00;1.37;709.60;0.00;0.00;0.62;;;;;32.10;1.00;;;;;;2282101;61;1193;-89
2023/09/09 09:26:30;694845.00;2.32;1198.30;0.00;0.00;0.62;;;;;32.00;1.00;;;;;;2278182;61;1974;-90
2023/09/09 09:36:27;1026943.00;3.42;1780.25;0.00;0.00;0.62;;;;;32.00;1.00;;;;;;2282025;61;1404;-89
2023/09/09 09:38:54;0.00;0.00;0.62;0.00;0.00;0.62;;;;;32.20;1.00;;;;;;2280223;61;1293;-88
2023/09/09 09:41:23;140996.00;0.47;244.29;0.00;0.00;0.62;;;;;32.70;1.00;;;;;;2301335;40;3818;-88
2023/09/09 09:43:51;106806.00;0.36;185.32;0.00;0.00;0.62;;;;;32.50;1.00;;;;;;2280226;60;1022;-89
2023/09/09 09:46:19;132916.00;0.44;230.36;0.00;0.00;0.62;;;;;32.40;1.00;;;;;;2280167;60;1751;-88
2023/09/09 09:51:19;528809.00;1.76;911.44;0.00;0.00;0.62;;;;;32.10;1.00;;;;;;2282624;61;1195;-91
2023/09/09 09:53:56;100147.00;0.33;173.83;0.00;0.00;0.62;;;;;32.00;1.00;;;;;;2298281;40;3721;-89
2023/09/09 09:58:55;317705.00;1.06;548.35;0.00;0.00;0.62;;;;;32.30;1.00;;;;;;2282890;61;1424;-89
2023/09/09 10:01:23;40392.00;0.13;70.57;0.00;0.00;0.62;;;;;32.40;1.00;;;;;;2280913;61;1047;-88
2023/09/09 10:03:57;220419.00;0.73;381.06;0.00;0.00;0.62;;;;;32.30;1.00;;;;;;2280857;61;1542;-89
2023/09/09 10:06:27;22255.00;0.07;39.17;0.00;0.00;0.62;;;;;32.60;1.00;;;;;;2280868;61;1039;-89
2023/09/09 10:11:30;416963.00;1.39;718.97;0.00;0.00;0.62;;;;;31.90;1.00;;;;;;2292461;40;3519;-88
2023/09/09 10:14:09;5746.00;0.02;10.58;0.00;0.00;0.62;;;;;32.00;1.00;;;;;;2295966;39;3659;-90
2023/09/09 10:16:37;277603.00;0.93;479.42;0.00;0.00;0.62;;;;;32.30;1.00;;;;;;2280833;60;1005;-88
2023/09/09 10:19:05;101729.00;0.34;176.56;0.00;0.00;0.62;;;;;32.60;1.00;;;;;;2278873;60;1394;-88
2023/09/09 10:24:08;531158.00;1.77;915.49;0.00;0.00;0.62;;;;;32.00;1.00;;;;;;2282362;61;1430;-89
2023/09/09 10:26:38;196523.00;0.66;339.94;0.00;0.00;0.62;;;;;31.90;1.00;;;;;;2280932;61;1480;-88
2023/09/09 10:29:07;20584.00;0.07;36.28;0.00;0.00;0.62;;;;;32.40;1.00;;;;;;2301374;39;3424;-88
2023/09/09 10:31:36;129090.00;0.43;223.76;0.00;0.00;0.62;;;;;32.30;1.00;;;;;;2276641;61;957;-88
2023/09/09 10:34:04;45810.00;0.15;79.94;0.00;0.00;0.62;;;;;32.00;1.00;;;;;;2276880;61;1590;-89
2023/09/09 10:39:01;326792.00;1.09;563.97;0.00;0.00;0.62;;;;;32.20;1.00;;;;;;2286406;39;3509;-88
2023/09/09 10:43:58;1042883.00;3.48;1808.57;0.00;0.00;0.62;;;;;32.20;1.00;;;;;;2282802;61;1298;-87
2023/09/09 10:48:53;378897.00;1.26;653.53;0.00;0.00;0.62;;;;;32.20;1.00;;;;;;2278163;61;1964;-88
2023/09/09 10:51:20;224784.00;0.75;388.57;41584.00;0.14;72.63;;;;;31.70;1.00;;;;;;2276800;61;1022;-88
2023/09/09 10:53:47;193561.00;0.65;334.84;0.00;0.00;0.62;;;;;31.80;1.00;;;;;;2276770;61;1013;-90
2023/09/09 10:56:24;170212.00;0.57;294.63;0.00;0.00;0.62;;;;;31.60;1.00;;;;;;2276959;61;852;-89
2023/09/09 10:58:51;10479.00;0.03;18.78;0.00;0.00;0.62;;;;;31.60;1.00;;;;;;2276637;61;1356;-90
2023/09/09 11:01:26;102263.00;0.34;177.48;0.00;0.00;0.62;;;;;31.90;1.00;;;;;;2276608;61;1059;-89
2023/09/09 11:03:53;108461.00;0.36;188.17;0.00;0.00;0.62;;;;;31.70;1.00;;;;;;2276665;61;1724;-90
2023/09/09 11:06:21;79982.00;0.27;139.01;0.00;0.00;0.62;;;;;31.50;1.00;;;;;;2276678;61;1585;-89
2023/09/09 11:08:49;76383.00;0.25;132.79;0.00;0.00;0.62;;;;;31.60;1.00;;;;;;2276616;61;2013;-89
2023/09/09 11:13:51;689869.00;2.30;1189.67;0.00;0.00;0.62;;;;;31.80;1.00;;;;;;2300157;55;3645;-89
2023/09/09 11:16:31;61917.00;0.21;107.79;0.00;0.00;0.62;;;;;32.10;1.00;;;;;;2280813;60;1039;-90
2023/09/09 11:19:00;253775.00;0.85;438.44;0.00;0.00;0.62;;;;;32.10;1.00;;;;;;2312086;56;3782;-89
2023/09/09 11:29:00;756714.00;2.52;1305.73;67413.00;0.22;117.29;;;;;32.20;1.00;;;;;;2276433;61;1975;-89
2023/09/09 11:31:30;83412.00;0.28;144.93;0.00;0.00;0.62;;;;;32.50;1.00;;;;;;2342160;39;3611;-90
2023/09/09 11:43:58;934212.00;3.11;1616.29;0.00;0.00;0.62;;;;;32.50;1.00;;;;;;2001447;40;3410;-90
2023/09/09 11:58:52;1407542.00;4.69;2470.32;0.00;0.00;0.62;;;;;31.70;1.00;;;;;;2282089;61;1395;-89
2023/09/09 12:03:50;964849.00;3.22;1670.31;0.00;0.00;0.62;;;;;31.50;1.00;;;;;;2037610;55;3702;-90
2023/09/09 12:06:20;274538.00;0.92;474.15;0.00;0.00;0.62;;;;;31.30;1.00;;;;;;2284603;60;1589;-90
2023/09/09 12:08:49;180786.00;0.60;312.84;0.00;0.00;0.62;;;;;31.50;1.00;;;;;;2286808;39;3508;-90
2023/09/09 12:11:17;75522.00;0.25;131.30;0.00;0.00;0.62;;;;;31.60;1.00;;;;;;2295180;39;3691;-90
2023/09/09 12:16:16;819821.00;2.73;1415.71;32068.00;0.11;56.16;;;;;31.70;1.00;;;;;;2282028;60;1414;-88
2023/09/09 12:23:42;1053232.00;3.51;1826.98;0.00;0.00;0.62;;;;;32.20;1.00;;;;;;2278271;61;1319;-87
2023/09/09 12:33:49;1106677.00;3.69;1922.37;57237.00;0.19;99.70;;;;;31.80;1.00;;;;;;2043543;40;3856;-90
2023/09/09 12:36:17;23246.00;0.08;40.89;0.00;0.00;0.62;;;;;32.30;1.00;;;;;;2368892;40;3622;-91
2023/09/09 12:48:53;782643.00;2.61;1350.87;0.00;0.00;0.62;;;;;33.00;1.00;;;;;;2282968;61;1874;-91
2023/09/09 12:51:21;343712.00;1.15;593.05;0.00;0.00;0.62;;;;;32.90;1.00;;;;;;2297848;56;3787;-88
2023/09/09 12:53:47;165824.00;0.55;287.07;0.00;0.00;0.62;;;;;32.70;1.00;;;;;;2280438;60;1088;-89
2023/09/09 12:56:14;218513.00;0.73;377.78;0.00;0.00;0.62;;;;;32.70;1.00;;;;;;2280474;60;1050;-89
2023/09/09 12:58:42;247287.00;0.82;427.28;0.00;0.00;0.62;;;;;33.10;1.00;;;;;;2279356;60;1371;-90
2023/09/09 13:08:42;801360.00;2.67;1383.50;0.00;0.00;0.62;;;;;33.40;1.00;;;;;;1978585;56;3567;-89
2023/09/09 13:13:39;711218.00;2.37;1226.70;0.00;0.00;0.62;;;;;33.40;1.00;;;;;;2278193;60;1387;-87
2023/09/09 13:16:06;241324.00;0.80;417.03;0.00;0.00;0.62;;;;;32.70;1.00;;;;;;2345587;56;3758;-89
2023/09/09 13:18:33;238018.00;0.79;411.34;0.00;0.00;0.62;;;;;32.80;1.00;;;;;;2294847;39;3609;-89
2023/09/09 13:25:57;801395.00;2.67;1383.56;0.00;0.00;0.62;;;;;32.90;1.00;;;;;;1971254;40;3377;-87
2023/09/09 13:48:32;573974.00;1.91;989.30;0.00;0.00;0.62;;;;;32.80;1.00;;;;;;2347616;55;3579;-88
2023/09/09 13:50:59;217102.00;0.72;375.36;0.00;0.00;0.62;;;;;32.60;1.00;;;;;;2306094;39;3622;-90
2023/09/09 14:13:33;1085813.00;3.62;1885.07;0.00;0.00;0.62;;;;;31.70;1.00;;;;;;1980995;40;3471;-89
2023/09/09 14:30:57;560131.00;1.87;965.43;0.00;0.00;0.62;;;;;32.40;1.00;;;;;;1990213;40;3456;-90
2023/09/09 14:38:22;1196820.00;3.99;2084.47;0.00;0.00;0.62;;;;;32.30;1.00;;;;;;832993;56;3597;-89
2023/09/09 14:43:18;656694.00;2.19;1132.22;0.00;0.00;0.62;;;;;32.70;1.00;;;;;;2308656;55;3667;-89
2023/09/09 14:45:45;188302.00;0.63;325.79;0.00;0.00;0.62;;;;;32.20;1.00;;;;;;2364462;55;3748;-90
2023/09/09 14:58:15;1244661.00;4.15;2171.18;339369.00;1.13;585.59;;;;;31.60;1.00;;;;;;2337721;55;3722;-90
2023/09/09 15:08:09;1120127.00;3.73;1946.46;65102.00;0.22;113.30;;;;;31.90;1.00;;;;;;2283245;61;1875;-90
2023/09/09 15:15:43;962376.00;3.21;1665.95;91578.00;0.31;159.03;;;;;31.60;1.00;;;;;;2351392;39;3629;-90
2023/09/09 15:18:15;1211327.00;4.04;2110.71;54016.00;0.18;94.13;;;;;31.40;1.00;;;;;;2296551;40;3571;-90
2023/09/09 15:20:42;737570.00;2.46;1272.45;52987.00;0.18;92.35;;;;;31.20;1.00;;;;;;2305967;56;3844;-90
2023/09/09 15:25:39;1181166.00;3.94;2056.21;87307.00;0.29;151.66;;;;;31.20;1.00;;;;;;2388796;40;3627;-89